Time;durP1;ratioP1;P1;durP2;ratioP2;P2;SDS_P1;SDS_P2;PMS_P1;PMS_P2;Temp;Humidity;BMP_temperature;BMP_pressure;BME280_temperature;BME280_humidity;BME280_pressure;Samples;Min_cycle;Max_cycle;Signal;HPM_P1;HPM_P2
2022/11/26 00:00:01;;;;;;;;;;;;;;;6.54;86.13;98838.16;5065190;28;20270;-71
2022/11/26 00:02:33;;;;;;;;;;;;;;;6.57;86.04;98834.94;5072028;28;20282;-73
2022/11/26 00:05:01;;;;;;;;;;;;;;;6.56;86.11;98844.13;5033260;28;20055;-71
2022/11/26 00:07:30;;;;;;;;;;;;;;;6.53;86.36;98840.03;5056919;28;19924;-72
2022/11/26 00:09:59;;;;;;;;;;;;;;;6.54;86.37;98843.56;5063085;28;19925;-72
2022/11/26 00:12:35;;;;;;;;;;;;;;;6.53;86.40;98850.03;5043544;28;20028;-72
2022/11/26 00:15:09;;;;;;;;;;;;;;;6.55;86.23;98840.63;5069782;28;20540;-71
2022/11/26 00:17:39;;;;;;;;;;;;;;;6.57;86.06;98854.66;5062513;28;20362;-71
2022/11/26 00:20:08;;;;;;;;;;;;;;;6.61;86.04;98856.84;5039959;28;20381;-72
2022/11/26 00:22:38;;;;;;;;;;;;;;;6.60;86.08;98853.31;5068144;28;19928;-72
2022/11/26 00:25:07;;;;;;;;;;;;;;;6.62;86.01;98861.97;5057526;28;19928;-72
2022/11/26 00:27:35;;;;;;;;;;;;;;;6.63;86.01;98854.69;5072994;28;19924;-72
2022/11/26 00:30:10;;;;;;;;;;;;;;;6.56;86.37;98854.94;5048912;28;19938;-71
2022/11/26 00:32:38;;;;;;;;;;;;;;;6.59;86.19;98859.78;5061757;28;20374;-71
2022/11/26 00:35:07;;;;;;;;;;;;;;;6.59;86.23;98864.38;5070674;28;19978;-72
2022/11/26 00:37:35;;;;;;;;;;;;;;;6.59;86.04;98867.06;5045295;28;19928;-71
2022/11/26 00:40:04;;;;;;;;;;;;;;;6.59;85.96;98865.19;5066528;28;19931;-71
2022/11/26 00:42:32;;;;;;;;;;;;;;;6.55;86.05;98873.00;5045999;28;19929;-71
2022/11/26 00:45:00;;;;;;;;;;;;;;;6.59;85.98;98867.88;5084990;28;19933;-71
2022/11/26 00:47:30;;;;;;;;;;;;;;;6.58;86.17;98871.66;5092392;28;19973;-72
2022/11/26 00:49:58;;;;;;;;;;;;;;;6.61;86.06;98876.56;5070649;28;19928;-71
2022/11/26 00:52:30;;;;;;;;;;;;;;;6.64;86.02;98870.63;5085105;28;20292;-72
2022/11/26 00:54:58;;;;;;;;;;;;;;;6.60;86.33;98880.31;5060572;28;19928;-71
2022/11/26 01:00:19;;;;;;;;;;;;;;;6.65;86.27;98872.22;5076301;28;19927;-72
2022/11/26 01:02:54;;;;;;;;;;;;;;;6.66;86.01;98884.69;5084175;28;20343;-72
2022/11/26 01:05:23;;;;;;;;;;;;;;;6.62;86.49;98891.69;5089525;28;19971;-72
2022/11/26 01:08:19;;;;;;;;;;;;;;;6.63;86.26;98898.69;5090834;28;19924;-71
2022/11/26 01:13:40;;;;;;;;;;;;;;;6.69;86.46;98911.16;5053776;28;19931;-71
2022/11/26 01:16:14;;;;;;;;;;;;;;;6.68;86.10;98906.81;5074936;28;19932;-71
2022/11/26 01:18:48;;;;;;;;;;;;;;;6.67;86.28;98902.50;5088776;28;19932;-71
2022/11/26 01:21:18;;;;;;;;;;;;;;;6.66;86.01;98909.00;5080426;28;19928;-70
2022/11/26 01:23:46;;;;;;;;;;;;;;;6.66;86.14;98914.38;5092037;28;19924;-71
2022/11/26 01:26:39;;;;;;;;;;;;;;;6.63;86.29;98917.59;5098113;28;19932;-72
2022/11/26 01:29:32;;;;;;;;;;;;;;;6.63;86.12;98928.41;5059746;28;19929;-73
2022/11/26 01:32:00;;;;;;;;;;;;;;;6.66;85.98;98927.03;5081858;28;19928;-71
2022/11/26 01:34:32;;;;;;;;;;;;;;;6.66;86.04;98933.28;5062342;28;20431;-71
2022/11/26 01:37:03;;;;;;;;;;;;;;;6.65;86.03;98925.44;5077455;28;19924;-73
2022/11/26 01:39:32;;;;;;;;;;;;;;;6.64;85.88;98930.00;5062876;28;19924;-71
2022/11/26 01:42:05;;;;;;;;;;;;;;;6.64;85.78;98932.72;5072548;28;19924;-71
2022/11/26 01:44:34;;;;;;;;;;;;;;;6.64;85.76;98929.22;5079932;28;20011;-71
2022/11/26 01:47:13;;;;;;;;;;;;;;;6.63;85.83;98933.00;5073498;28;19924;-71
2022/11/26 01:50:06;;;;;;;;;;;;;;;6.63;85.93;98939.19;5087780;28;20207;-71
2022/11/26 01:52:36;;;;;;;;;;;;;;;6.60;85.95;98945.09;5083432;28;19981;-71
2022/11/26 01:55:04;;;;;;;;;;;;;;;6.59;86.12;98948.06;5091713;28;19928;-71
2022/11/26 01:57:37;;;;;;;;;;;;;;;6.61;86.48;98952.16;5075993;28;19925;-70
2022/11/26 02:00:07;;;;;;;;;;;;;;;6.62;86.41;98947.56;5091161;28;20293;-71
2022/11/26 02:02:39;;;;;;;;;;;;;;;6.61;86.54;98954.84;5089337;28;19940;-72
2022/11/26 02:05:09;;;;;;;;;;;;;;;6.63;86.17;98958.09;5066241;28;19928;-71
2022/11/26 02:07:39;;;;;;;;;;;;;;;6.63;86.14;98966.19;5077568;28;19925;-72
2022/11/26 02:10:08;;;;;;;;;;;;;;;6.68;86.43;98966.25;5080562;28;19924;-71
2022/11/26 02:12:36;;;;;;;;;;;;;;;6.68;86.30;98962.72;5075196;28;19986;-71
2022/11/26 02:17:57;;;;;;;;;;;;;;;6.63;86.53;98966.19;5085832;28;19924;-71
2022/11/26 02:20:29;;;;;;;;;;;;;;;6.67;86.65;98972.72;5061718;28;19974;-71
2022/11/26 02:23:16;;;;;;;;;;;;;;;6.66;86.37;98971.09;5071436;28;19925;-71
2022/11/26 02:26:10;;;;;;;;;;;;;;;6.68;86.51;98974.34;5078506;28;19924;-71
2022/11/26 02:28:44;;;;;;;;;;;;;;;6.68;86.43;98968.94;5068884;28;19928;-72
2022/11/26 02:31:14;;;;;;;;;;;;;;;6.71;86.65;98973.84;5091573;28;19958;-71
2022/11/26 02:33:44;;;;;;;;;;;;;;;6.71;86.22;98984.63;5069766;28;19934;-71
2022/11/26 02:36:13;;;;;;;;;;;;;;;6.72;85.96;98982.75;5069700;28;19929;-73
2022/11/26 02:38:42;;;;;;;;;;;;;;;6.74;85.96;98994.91;5076709;28;20085;-71
2022/11/26 02:41:10;;;;;;;;;;;;;;;6.74;85.72;98994.91;5077732;28;20088;-72
2022/11/26 02:43:39;;;;;;;;;;;;;;;6.74;85.92;98994.09;5083133;28;19931;-71
2022/11/26 02:46:08;;;;;;;;;;;;;;;6.70;85.72;98991.09;5062188;28;19936;-71
2022/11/26 02:48:39;;;;;;;;;;;;;;;6.69;85.65;98994.84;5090481;28;19930;-71
2022/11/26 02:51:07;;;;;;;;;;;;;;;6.71;85.77;99000.00;5069777;28;19931;-71
2022/11/26 02:53:38;;;;;;;;;;;;;;;6.69;85.65;98991.34;5087848;28;20292;-71
2022/11/26 02:56:07;;;;;;;;;;;;;;;6.70;85.61;98998.38;5078435;28;19924;-71
2022/11/26 02:58:35;;;;;;;;;;;;;;;6.69;85.42;98997.56;5092147;28;19924;-71
2022/11/26 03:01:04;;;;;;;;;;;;;;;6.65;85.29;98999.16;5093198;28;19931;-72
2022/11/26 03:03:59;;;;;;;;;;;;;;;6.66;85.70;98999.97;5092949;28;19924;-71
2022/11/26 03:06:28;;;;;;;;;;;;;;;6.67;85.51;99005.13;5086646;28;19924;-71
2022/11/26 03:09:02;;;;;;;;;;;;;;;6.66;85.97;98998.09;5092368;28;19931;-71
2022/11/26 03:11:31;;;;;;;;;;;;;;;6.65;85.40;98995.63;5074733;28;19927;-71
2022/11/26 03:13:59;;;;;;;;;;;;;;;6.65;85.33;98991.03;5092310;28;19924;-72
2022/11/26 03:16:27;;;;;;;;;;;;;;;6.59;85.61;98997.47;5086432;28;19928;-71
2022/11/26 03:18:55;;;;;;;;;;;;;;;6.58;85.74;98995.84;5088614;28;19935;-73
2022/11/26 03:21:25;;;;;;;;;;;;;;;6.55;85.91;98999.06;5073539;28;19931;-71
2022/11/26 03:23:53;;;;;;;;;;;;;;;6.54;85.78;99000.13;5087701;28;19924;-71
2022/11/26 03:26:21;;;;;;;;;;;;;;;6.51;85.80;98996.09;5092615;28;20346;-73
2022/11/26 03:28:49;;;;;;;;;;;;;;;6.48;85.51;99001.19;5087611;28;19962;-71
2022/11/26 03:31:20;;;;;;;;;;;;;;;6.48;85.79;99011.97;5093884;28;19955;-72
2022/11/26 03:33:48;;;;;;;;;;;;;;;6.45;85.63;99012.50;5091113;28;20282;-71
2022/11/26 03:36:16;;;;;;;;;;;;;;;6.45;85.82;99015.22;5088503;28;20360;-71
2022/11/26 03:38:46;;;;;;;;;;;;;;;6.43;85.81;99020.03;5093061;28;19928;-71
2022/11/26 03:41:14;;;;;;;;;;;;;;;6.45;85.86;99026.00;5063198;28;19925;-71
2022/11/26 03:43:42;;;;;;;;;;;;;;;6.44;85.72;99027.06;5077513;28;19932;-71
2022/11/26 03:46:10;;;;;;;;;;;;;;;6.43;85.91;99031.63;5086571;28;20404;-71
2022/11/26 03:48:38;;;;;;;;;;;;;;;6.44;85.61;99032.44;5075074;28;19928;-71
2022/11/26 03:51:07;;;;;;;;;;;;;;;6.45;85.95;99039.50;5080725;28;20277;-71
2022/11/26 03:54:01;;;;;;;;;;;;;;;6.44;85.60;99037.84;5087986;28;19929;-74
2022/11/26 03:56:31;;;;;;;;;;;;;;;6.44;85.65;99043.25;5074998;28;20281;-71
2022/11/26 03:58:59;;;;;;;;;;;;;;;6.42;85.74;99045.41;5077365;28;19932;-72
2022/11/26 04:01:27;;;;;;;;;;;;;;;6.42;85.94;99046.22;5092560;28;20295;-72
2022/11/26 04:03:55;;;;;;;;;;;;;;;6.44;85.95;99052.16;5059219;28;20348;-74
2022/11/26 04:06:23;;;;;;;;;;;;;;;6.45;85.93;99047.59;5089695;28;20397;-72
2022/11/26 04:09:17;;;;;;;;;;;;;;;6.45;85.85;99053.00;5092491;28;19924;-73
2022/11/26 04:12:12;;;;;;;;;;;;;;;6.43;85.77;99069.44;5085786;28;19934;-72
2022/11/26 04:14:40;;;;;;;;;;;;;;;6.46;85.77;99065.41;5089308;28;20392;-72
2022/11/26 04:17:09;;;;;;;;;;;;;;;6.47;85.98;99069.75;5079453;28;19931;-71
2022/11/26 04:19:37;;;;;;;;;;;;;;;6.46;85.77;99063.53;5084317;28;20396;-71
2022/11/26 04:22:06;;;;;;;;;;;;;;;6.48;85.83;99060.56;5065733;28;19928;-71
2022/11/26 04:24:34;;;;;;;;;;;;;;;6.47;85.83;99073.25;5083034;28;19935;-71
2022/11/26 04:27:02;;;;;;;;;;;;;;;6.45;85.97;99071.91;5083354;28;19930;-71
2022/11/26 04:29:32;;;;;;;;;;;;;;;6.45;86.06;99077.28;5079712;28;19928;-76
2022/11/26 04:32:03;;;;;;;;;;;;;;;6.44;86.16;99079.16;5079933;28;19931;-72
2022/11/26 04:34:56;;;;;;;;;;;;;;;6.45;86.24;99083.50;5063775;28;19928;-71
2022/11/26 04:37:25;;;;;;;;;;;;;;;6.43;86.14;99076.72;5074116;28;19936;-72
2022/11/26 04:39:53;;;;;;;;;;;;;;;6.45;85.80;99083.50;5085108;28;19924;-72
2022/11/26 04:42:21;;;;;;;;;;;;;;;6.45;85.87;99098.88;5085085;28;19954;-71
2022/11/26 04:44:50;;;;;;;;;;;;;;;6.46;86.17;99097.81;5048803;28;19947;-72
2022/11/26 04:47:18;;;;;;;;;;;;;;;6.45;86.08;99094.31;5076206;28;20369;-71
2022/11/26 04:49:48;;;;;;;;;;;;;;;6.48;86.20;99087.56;5064339;28;19929;-71
2022/11/26 04:52:16;;;;;;;;;;;;;;;6.46;85.56;99090.53;5065476;28;19932;-71
2022/11/26 04:54:44;;;;;;;;;;;;;;;6.46;85.75;99095.94;5061388;28;19925;-72
2022/11/26 04:57:13;;;;;;;;;;;;;;;6.47;85.83;99100.25;5061400;28;19951;-74
2022/11/26 04:59:41;;;;;;;;;;;;;;;6.49;86.12;99100.78;5062493;28;20233;-71
2022/11/26 05:02:12;;;;;;;;;;;;;;;6.50;85.88;99110.56;5037373;28;19932;-71
2022/11/26 05:04:40;;;;;;;;;;;;;;;6.50;85.67;99107.03;5061415;28;19924;-71
2022/11/26 05:07:08;;;;;;;;;;;;;;;6.50;86.00;99107.84;5072455;28;19931;-71
2022/11/26 05:09:36;;;;;;;;;;;;;;;6.50;85.97;99115.13;5060500;28;19936;-71
2022/11/26 05:12:05;;;;;;;;;;;;;;;6.50;85.84;99118.66;5058712;28;19939;-72
2022/11/26 05:14:33;;;;;;;;;;;;;;;6.48;85.50;99120.78;5053129;28;19928;-71
2022/11/26 05:17:02;;;;;;;;;;;;;;;6.52;85.79;99126.50;5070042;28;19925;-71
2022/11/26 05:19:33;;;;;;;;;;;;;;;6.52;85.55;99130.00;5066324;28;20289;-71
2022/11/26 05:22:01;;;;;;;;;;;;;;;6.52;85.77;99127.31;5067976;28;19928;-70
2022/11/26 05:24:30;;;;;;;;;;;;;;;6.57;85.93;99131.94;5071036;28;19925;-71
2022/11/26 05:26:58;;;;;;;;;;;;;;;6.57;85.76;99132.75;5053418;28;19932;-72
2022/11/26 05:29:26;;;;;;;;;;;;;;;6.53;85.73;99133.50;5055399;28;20377;-71
2022/11/26 05:31:54;;;;;;;;;;;;;;;6.54;85.84;99132.44;5051542;28;20400;-71
2022/11/26 05:37:22;;;;;;;;;;;;;;;6.52;86.05;99148.09;5060801;28;19925;-73
2022/11/26 05:39:50;;;;;;;;;;;;;;;6.50;86.25;99147.53;5070626;28;19925;-71
2022/11/26 05:42:19;;;;;;;;;;;;;;;6.49;86.37;99140.47;5054943;28;19959;-71
2022/11/26 05:44:47;;;;;;;;;;;;;;;6.47;86.10;99145.34;5068936;28;19932;-71
2022/11/26 05:47:15;;;;;;;;;;;;;;;6.48;86.18;99150.47;5068545;28;19924;-71
2022/11/26 05:49:48;;;;;;;;;;;;;;;6.47;86.15;99158.84;5043563;28;19929;-71
2022/11/26 05:52:16;;;;;;;;;;;;;;;6.43;86.16;99152.31;5064195;28;20324;-71
2022/11/26 05:54:46;;;;;;;;;;;;;;;6.40;86.37;99156.34;5065254;28;19925;-72
2022/11/26 05:57:15;;;;;;;;;;;;;;;6.40;86.52;99155.53;5069873;28;19928;-71
2022/11/26 05:59:43;;;;;;;;;;;;;;;6.37;86.51;99156.84;5047690;28;20043;-72
2022/11/26 06:02:11;;;;;;;;;;;;;;;6.35;86.80;99158.97;5061574;28;19925;-71
2022/11/26 06:04:40;;;;;;;;;;;;;;;6.36;86.53;99157.91;5061220;28;19925;-71
2022/11/26 06:07:08;;;;;;;;;;;;;;;6.38;86.68;99163.03;5063156;28;19928;-72
2022/11/26 06:09:36;;;;;;;;;;;;;;;6.36;86.23;99159.78;5043476;28;19925;-73
2022/11/26 06:12:06;;;;;;;;;;;;;;;6.36;86.57;99157.91;5067193;28;20022;-71
2022/11/26 06:14:36;;;;;;;;;;;;;;;6.36;86.35;99159.78;5065113;28;19929;-70
2022/11/26 06:17:09;;;;;;;;;;;;;;;6.38;86.55;99166.56;5049345;28;19936;-71
2022/11/26 06:19:38;;;;;;;;;;;;;;;6.40;86.62;99167.13;5056984;28;19929;-71
2022/11/26 06:22:06;;;;;;;;;;;;;;;6.40;86.19;99172.53;5063720;28;19954;-71
2022/11/26 06:24:34;;;;;;;;;;;;;;;6.41;86.49;99178.75;5052874;28;19939;-72
2022/11/26 06:27:03;;;;;;;;;;;;;;;6.41;86.89;99176.03;5039479;28;20377;-71
2022/11/26 06:29:32;;;;;;;;;;;;;;;6.43;86.67;99180.09;5063427;28;19924;-71
2022/11/26 06:32:00;;;;;;;;;;;;;;;6.43;86.56;99176.59;5053542;28;19925;-71
2022/11/26 06:34:30;;;;;;;;;;;;;;;6.42;86.55;99183.88;5044902;28;19924;-71
2022/11/26 06:36:58;;;;;;;;;;;;;;;6.39;86.26;99180.88;5073323;28;19924;-72
2022/11/26 06:39:27;;;;;;;;;;;;;;;6.41;86.31;99189.53;5071461;28;19929;-71
2022/11/26 06:41:55;;;;;;;;;;;;;;;6.42;86.62;99191.16;5070884;28;19924;-71
2022/11/26 06:44:24;;;;;;;;;;;;;;;6.45;86.07;99202.28;5065104;28;19925;-71
2022/11/26 06:46:53;;;;;;;;;;;;;;;6.45;86.33;99202.28;5066828;28;19924;-71
2022/11/26 06:49:21;;;;;;;;;;;;;;;6.45;86.27;99198.78;5056048;28;20797;-74
2022/11/26 06:51:49;;;;;;;;;;;;;;;6.49;86.36;99202.56;5045286;28;20377;-72
2022/11/26 06:54:17;;;;;;;;;;;;;;;6.51;86.32;99211.25;5059317;28;19928;-71
2022/11/26 06:56:46;;;;;;;;;;;;;;;6.50;86.32;99212.34;5070099;28;19951;-71
2022/11/26 06:59:14;;;;;;;;;;;;;;;6.52;86.10;99211.00;5072955;28;20369;-71
2022/11/26 07:01:43;;;;;;;;;;;;;;;6.51;86.13;99216.66;5062168;28;19925;-71
2022/11/26 07:07:06;;;;;;;;;;;;;;;6.53;85.72;99223.41;5067869;28;19924;-76
2022/11/26 07:09:36;;;;;;;;;;;;;;;6.54;85.74;99226.94;5058513;28;19932;-72
2022/11/26 07:12:04;;;;;;;;;;;;;;;6.56;85.83;99230.22;5051809;28;19928;-71
2022/11/26 07:14:32;;;;;;;;;;;;;;;6.57;85.66;99231.84;5050632;28;19924;-71
2022/11/26 07:17:00;;;;;;;;;;;;;;;6.53;85.27;99236.91;5073512;28;20297;-72
2022/11/26 07:19:30;;;;;;;;;;;;;;;6.58;85.57;99238.88;5065391;28;19955;-71
2022/11/26 07:21:59;;;;;;;;;;;;;;;6.59;85.39;99234.28;5058733;28;19925;-71
2022/11/26 07:24:27;;;;;;;;;;;;;;;6.64;85.46;99229.75;5051241;28;19972;-71
2022/11/26 07:27:20;;;;;;;;;;;;;;;6.67;85.19;99229.25;5054117;28;19928;-71
2022/11/26 07:29:48;;;;;;;;;;;;;;;6.70;84.85;99231.44;5066518;28;19929;-71
2022/11/26 07:32:17;;;;;;;;;;;;;;;6.72;84.66;99231.19;5063686;28;19978;-71
2022/11/26 07:34:47;;;;;;;;;;;;;;;6.74;84.21;99235.28;5064827;28;19924;-69
2022/11/26 07:37:16;;;;;;;;;;;;;;;6.77;84.15;99242.88;5070788;28;19978;-69
2022/11/26 07:39:45;;;;;;;;;;;;;;;6.78;83.87;99239.09;5069233;28;19931;-69
2022/11/26 07:42:13;;;;;;;;;;;;;;;6.78;84.17;99251.78;5073643;28;19929;-69
2022/11/26 07:44:42;;;;;;;;;;;;;;;6.78;84.04;99243.69;5079116;28;19924;-69
2022/11/26 07:47:09;;;;;;;;;;;;;;;6.76;83.94;99245.81;5084814;28;19924;-70
2022/11/26 07:49:43;;;;;;;;;;;;;;;6.75;84.49;99247.69;5078858;28;19924;-69
2022/11/26 07:52:13;;;;;;;;;;;;;;;6.79;84.21;99250.72;5086194;28;19924;-70
2022/11/26 07:54:42;;;;;;;;;;;;;;;6.76;84.08;99252.03;5079963;28;19975;-69
2022/11/26 07:57:11;;;;;;;;;;;;;;;6.77;83.93;99261.78;5087317;28;19966;-69
2022/11/26 07:59:39;;;;;;;;;;;;;;;6.76;83.80;99262.00;5087647;28;20019;-70
2022/11/26 08:02:09;;;;;;;;;;;;;;;6.71;83.95;99262.81;5074923;28;20653;-71
2022/11/26 08:04:37;;;;;;;;;;;;;;;6.74;84.15;99269.56;5074943;28;19929;-70
2022/11/26 08:07:06;;;;;;;;;;;;;;;6.80;84.08;99274.75;5061967;28;19924;-70
2022/11/26 08:09:37;;;;;;;;;;;;;;;6.90;83.61;99284.06;5064770;28;19981;-69
2022/11/26 08:12:06;;;;;;;;;;;;;;;6.94;83.69;99285.19;5087731;28;19927;-70
2022/11/26 08:14:34;;;;;;;;;;;;;;;7.04;83.59;99290.72;5083769;28;20435;-70
2022/11/26 08:17:03;;;;;;;;;;;;;;;7.03;83.05;99294.44;5054869;28;19928;-70
2022/11/26 08:19:56;;;;;;;;;;;;;;;7.06;82.85;99299.38;5069070;28;19924;-70
2022/11/26 08:22:49;;;;;;;;;;;;;;;7.04;82.95;99298.81;5063686;28;20460;-70
2022/11/26 08:25:20;;;;;;;;;;;;;;;7.05;82.90;99309.34;5083520;28;19978;-71
2022/11/26 08:27:51;;;;;;;;;;;;;;;7.07;82.66;99312.63;5074525;28;19924;-71
2022/11/26 08:30:22;;;;;;;;;;;;;;;7.03;82.58;99299.84;5065237;28;20270;-70
2022/11/26 08:32:50;;;;;;;;;;;;;;;7.04;82.70;99307.72;5076504;28;19964;-70
2022/11/26 08:35:19;;;;;;;;;;;;;;;7.04;82.30;99309.63;5085494;28;19924;-71
2022/11/26 08:37:47;;;;;;;;;;;;;;;7.04;82.14;99315.03;5086044;28;19931;-70
2022/11/26 08:40:15;;;;;;;;;;;;;;;7.01;82.45;99316.34;5051139;28;20375;-70
2022/11/26 08:42:45;;;;;;;;;;;;;;;7.04;82.25;99323.13;5079955;28;20394;-71
2022/11/26 08:45:13;;;;;;;;;;;;;;;7.03;82.39;99326.88;5059023;28;19940;-70
2022/11/26 08:47:41;;;;;;;;;;;;;;;7.04;82.70;99328.53;5057117;28;19933;-70
2022/11/26 08:50:10;;;;;;;;;;;;;;;7.09;82.41;99332.09;5062015;28;20352;-71
2022/11/26 08:52:41;;;;;;;;;;;;;;;7.10;82.20;99332.94;5040393;28;20263;-70
2022/11/26 08:55:09;;;;;;;;;;;;;;;7.10;81.69;99338.31;5058527;28;19928;-71
2022/11/26 09:00:32;;;;;;;;;;;;;;;7.14;82.15;99344.88;5038036;28;20454;-71
2022/11/26 09:03:00;;;;;;;;;;;;;;;7.15;81.59;99345.69;5043681;28;19928;-71
2022/11/26 09:05:29;;;;;;;;;;;;;;;7.17;82.77;99349.75;5047065;28;20029;-71
2022/11/26 09:08:00;;;;;;;;;;;;;;;7.25;81.77;99346.59;5049976;28;19993;-71
2022/11/26 09:10:32;;;;;;;;;;;;;;;7.29;82.43;99363.13;5047286;28;19932;-70
2022/11/26 09:13:00;;;;;;;;;;;;;;;7.27;82.08;99355.25;5068523;28;19928;-72
2022/11/26 09:15:53;;;;;;;;;;;;;;;7.23;81.46;99359.53;5065228;28;19932;-71
2022/11/26 09:18:22;;;;;;;;;;;;;;;7.20;81.67;99359.25;5055308;28;19925;-70
2022/11/26 09:20:51;;;;;;;;;;;;;;;7.21;81.62;99352.78;5064541;28;19932;-70
2022/11/26 09:23:24;;;;;;;;;;;;;;;7.24;81.54;99350.34;5058560;28;19960;-71
2022/11/26 09:25:53;;;;;;;;;;;;;;;7.23;81.41;99358.72;5055788;28;19971;-73
2022/11/26 09:28:21;;;;;;;;;;;;;;;7.28;81.25;99361.47;5058733;28;19928;-70
2022/11/26 09:30:50;;;;;;;;;;;;;;;7.26;80.68;99369.84;5066418;28;20289;-71
2022/11/26 09:37:02;;;;;;;;;;;;;;;7.26;80.55;99375.25;5065744;28;20435;-71
2022/11/26 09:39:30;;;;;;;;;;;;;;;7.18;80.76;99361.38;5056400;28;19928;-70
2022/11/26 09:42:01;;;;;;;;;;;;;;;7.25;80.76;99376.34;5069306;28;19969;-71
2022/11/26 09:44:36;;;;;;;;;;;;;;;7.28;80.88;99370.41;5077794;28;19928;-71
2022/11/26 09:47:06;;;;;;;;;;;;;;;7.27;80.23;99373.38;5076876;28;19931;-71
2022/11/26 09:49:44;;;;;;;;;;;;;;;7.30;80.06;99373.69;5057984;28;19959;-71
2022/11/26 09:52:17;;;;;;;;;;;;;;;7.32;79.84;99362.63;5082074;28;20029;-71
2022/11/26 09:54:46;;;;;;;;;;;;;;;7.29;79.99;99368.53;5066595;28;19924;-71
2022/11/26 09:57:18;;;;;;;;;;;;;;;7.28;80.54;99370.41;5062154;28;19924;-71
2022/11/26 09:59:47;;;;;;;;;;;;;;;7.24;79.98;99371.97;5065870;28;19929;-71
2022/11/26 10:02:16;;;;;;;;;;;;;;;7.26;80.41;99366.34;5085595;28;19931;-71
2022/11/26 10:04:45;;;;;;;;;;;;;;;7.25;80.21;99362.81;5080166;28;19935;-72
2022/11/26 10:07:20;;;;;;;;;;;;;;;7.17;80.38;99365.16;5087354;28;20296;-72
2022/11/26 10:09:53;;;;;;;;;;;;;;;7.07;80.27;99372.06;5076590;28;19921;-71
2022/11/26 10:12:25;;;;;;;;;;;;;;;7.12;80.57;99367.78;5078974;28;19924;-70
2022/11/26 10:14:55;;;;;;;;;;;;;;;7.17;80.21;99368.66;5082016;28;19931;-72
2022/11/26 10:17:39;;;;;;;;;;;;;;;7.04;79.78;99374.47;5074468;28;19924;-72
2022/11/26 10:20:16;;;;;;;;;;;;;;;7.08;79.61;99365.63;5076788;28;19925;-71
2022/11/26 10:22:46;;;;;;;;;;;;;;;7.12;79.72;99381.31;5088017;28;20369;-71
2022/11/26 10:25:19;;;;;;;;;;;;;;;7.04;79.43;99375.28;5075238;28;19928;-72
2022/11/26 10:27:50;;;;;;;;;;;;;;;7.01;80.17;99366.84;5089512;28;19928;-72
2022/11/26 10:30:20;;;;;;;;;;;;;;;7.02;80.01;99380.09;5089233;28;19924;-72
2022/11/26 10:32:49;;;;;;;;;;;;;;;7.03;80.56;99379.06;5089930;28;19928;-72
2022/11/26 10:35:18;;;;;;;;;;;;;;;7.03;80.34;99384.47;5063582;28;19924;-72
2022/11/26 10:37:48;;;;;;;;;;;;;;;7.04;80.75;99380.69;5091934;28;19960;-71
2022/11/26 10:40:18;;;;;;;;;;;;;;;7.04;80.86;99382.59;5085839;28;19924;-72
2022/11/26 10:43:12;;;;;;;;;;;;;;;7.03;81.00;99381.75;5086748;28;19931;-72
2022/11/26 10:45:41;;;;;;;;;;;;;;;7.04;80.42;99379.88;5081932;28;19963;-75
2022/11/26 10:48:21;;;;;;;;;;;;;;;7.01;80.61;99370.38;5093490;28;19924;-72
2022/11/26 10:53:55;;;;;;;;;;;;;;;7.01;80.45;99372.25;5091157;28;19947;-74
2022/11/26 10:56:26;;;;;;;;;;;;;;;7.04;80.51;99380.69;5079175;28;19924;-71
2022/11/26 10:58:55;;;;;;;;;;;;;;;6.97;80.33;99379.22;5088981;28;19924;-71
2022/11/26 11:01:23;;;;;;;;;;;;;;;6.97;80.30;99373.81;5091525;28;19928;-71
2022/11/26 11:03:52;;;;;;;;;;;;;;;7.08;80.23;99375.56;5084435;28;21804;-72
2022/11/26 11:06:37;;;;;;;;;;;;;;;7.15;80.13;99376.22;5088654;28;19924;-71
2022/11/26 11:09:22;;;;;;;;;;;;;;;7.19;80.30;99374.66;5084800;28;19932;-72
2022/11/26 11:12:16;;;;;;;;;;;;;;;7.33;79.82;99372.34;5078605;28;20366;-70
2022/11/26 11:18:19;;;;;;;;;;;;;;;7.33;78.09;99370.47;5078757;28;19931;-70
2022/11/26 11:20:51;;;;;;;;;;;;;;;7.41;77.97;99371.91;5066979;28;19924;-71
2022/11/26 11:23:21;;;;;;;;;;;;;;;7.38;78.54;99363.47;5066721;28;19969;-71
2022/11/26 11:26:27;;;;;;;;;;;;;;;7.38;78.61;99368.88;5089216;28;19929;-72
2022/11/26 11:28:57;;;;;;;;;;;;;;;7.40;78.45;99370.25;5077745;28;19963;-71
2022/11/26 11:31:25;;;;;;;;;;;;;;;7.42;78.66;99372.72;5084553;28;19978;-71
2022/11/26 11:37:05;;;;;;;;;;;;;;;7.44;78.07;99382.19;5082534;28;19939;-72
2022/11/26 11:39:38;;;;;;;;;;;;;;;7.42;77.29;99373.53;5090912;28;19924;-73
2022/11/26 11:42:07;;;;;;;;;;;;;;;7.58;77.93;99372.63;5078762;28;19924;-73
2022/11/26 11:44:39;;;;;;;;;;;;;;;7.67;77.24;99364.88;5074535;28;19935;-73
2022/11/26 11:47:34;;;;;;;;;;;;;;;7.59;75.73;99374.25;5076101;28;20667;-72
2022/11/26 11:50:04;;;;;;;;;;;;;;;7.51;76.64;99376.59;5061051;28;19936;-72
2022/11/26 11:52:35;;;;;;;;;;;;;;;7.51;76.08;99382.00;5052718;28;19925;-73
2022/11/26 11:55:06;;;;;;;;;;;;;;;7.47;75.56;99370.88;5075494;28;19936;-72
2022/11/26 11:57:39;;;;;;;;;;;;;;;7.45;76.19;99373.00;5076214;28;20338;-73
2022/11/26 12:00:36;;;;;;;;;;;;;;;7.41;75.89;99376.50;5076122;28;19989;-73
2022/11/26 12:03:10;;;;;;;;;;;;;;;7.37;76.38;99367.25;5075976;28;20274;-71
2022/11/26 12:05:56;;;;;;;;;;;;;;;7.41;76.56;99371.91;5074850;28;19978;-72
2022/11/26 12:08:31;;;;;;;;;;;;;;;7.45;76.85;99367.59;5092699;28;19924;-73
2022/11/26 12:11:05;;;;;;;;;;;;;;;7.40;75.54;99366.75;5074418;28;19928;-73
2022/11/26 12:13:35;;;;;;;;;;;;;;;7.47;75.28;99376.28;5082507;28;19947;-73
2022/11/26 12:16:06;;;;;;;;;;;;;;;7.32;74.84;99373.44;5065246;28;19924;-72
2022/11/26 12:18:59;;;;;;;;;;;;;;;7.32;75.33;99371.53;5073768;28;19924;-73
2022/11/26 12:21:29;;;;;;;;;;;;;;;7.34;75.97;99369.38;5076704;28;19932;-73
2022/11/26 12:23:58;;;;;;;;;;;;;;;7.35;75.72;99373.75;5062921;28;20010;-73
2022/11/26 12:26:28;;;;;;;;;;;;;;;7.33;75.27;99375.06;5078825;28;19924;-72
2022/11/26 12:28:59;;;;;;;;;;;;;;;7.30;75.58;99371.00;5075798;28;19924;-73
2022/11/26 12:31:30;;;;;;;;;;;;;;;7.34;75.56;99377.50;5059428;28;19925;-72
2022/11/26 12:34:00;;;;;;;;;;;;;;;7.32;75.55;99376.13;5079697;28;19924;-73
2022/11/26 12:37:01;;;;;;;;;;;;;;;7.27;74.68;99366.06;5089821;28;19931;-72
2022/11/26 12:39:33;;;;;;;;;;;;;;;7.31;75.39;99374.50;5097526;28;19977;-71
2022/11/26 12:42:03;;;;;;;;;;;;;;;7.31;75.64;99375.31;5072521;28;20263;-73
2022/11/26 12:44:32;;;;;;;;;;;;;;;7.27;75.40;99374.19;5057368;28;19952;-73
2022/11/26 12:47:04;;;;;;;;;;;;;;;7.27;75.49;99370.66;5076997;28;19931;-73
2022/11/26 12:49:39;;;;;;;;;;;;;;;7.21;75.28;99372.50;5080873;28;19954;-74
2022/11/26 12:52:16;;;;;;;;;;;;;;;7.19;75.04;99374.66;5071183;28;19936;-72
2022/11/26 12:54:54;;;;;;;;;;;;;;;7.18;75.20;99372.19;5071715;28;19970;-73
2022/11/26 12:57:25;;;;;;;;;;;;;;;7.22;75.09;99370.63;5058818;28;20399;-72
2022/11/26 12:59:54;;;;;;;;;;;;;;;7.29;75.49;99372.03;5077409;28;19928;-73
2022/11/26 13:02:25;;;;;;;;;;;;;;;7.36;75.32;99371.84;5076324;28;19924;-73
2022/11/26 13:04:54;;;;;;;;;;;;;;;7.30;75.17;99370.19;5063711;28;20450;-73
2022/11/26 13:07:26;;;;;;;;;;;;;;;7.37;75.21;99364.56;5068123;28;20019;-72
2022/11/26 13:10:02;;;;;;;;;;;;;;;7.42;74.78;99368.13;5078713;28;20274;-73
2022/11/26 13:12:34;;;;;;;;;;;;;;;7.49;75.04;99365.22;5073161;28;19932;-73
2022/11/26 13:15:03;;;;;;;;;;;;;;;7.46;74.57;99365.75;5071824;28;19924;-73
2022/11/26 13:17:37;;;;;;;;;;;;;;;7.46;74.89;99363.84;5076110;28;19928;-73
2022/11/26 13:23:09;;;;;;;;;;;;;;;7.48;74.04;99367.09;5056371;28;20297;-74
2022/11/26 13:25:42;;;;;;;;;;;;;;;7.46;74.58;99368.44;5080732;28;19924;-74
2022/11/26 13:28:14;;;;;;;;;;;;;;;7.47;74.74;99364.66;5080691;28;19989;-72
2022/11/26 13:30:43;;;;;;;;;;;;;;;7.53;74.59;99359.03;5058288;28;19939;-72
2022/11/26 13:33:39;;;;;;;;;;;;;;;7.52;74.49;99356.59;5061296;28;20646;-72
2022/11/26 13:36:19;;;;;;;;;;;;;;;7.51;74.27;99360.34;5085977;28;19928;-74
2022/11/26 13:38:49;;;;;;;;;;;;;;;7.46;74.44;99363.03;5082789;28;20332;-75
2022/11/26 13:41:48;;;;;;;;;;;;;;;7.47;75.27;99365.47;5080524;28;19964;-74
2022/11/26 13:44:23;;;;;;;;;;;;;;;7.43;74.85;99368.94;5011816;28;19976;-73
2022/11/26 13:47:15;;;;;;;;;;;;;;;7.47;75.17;99372.78;5080672;28;20003;-73
2022/11/26 13:49:45;;;;;;;;;;;;;;;7.50;73.70;99372.25;5075812;28;20591;-73
2022/11/26 13:52:16;;;;;;;;;;;;;;;7.41;74.27;99368.41;5077921;28;19947;-73
2022/11/26 13:54:49;;;;;;;;;;;;;;;7.44;73.97;99365.97;5079239;28;19932;-71